createdAt,value
2017-11-12T00:00:06.964Z,100079.76
2017-11-12T00:02:35.346Z,100074.88
2017-11-12T00:05:03.717Z,100081.96
2017-11-12T00:07:32.068Z,100082.25
2017-11-12T00:10:00.440Z,100075.61
2017-11-12T00:12:28.799Z,100079.62
2017-11-12T00:14:57.165Z,100077.04
2017-11-12T00:17:25.534Z,100080.29
2017-11-12T00:19:53.910Z,100082.58
2017-11-12T00:22:22.278Z,100071.58
2017-11-12T00:24:50.645Z,100076.54
2017-11-12T00:27:19.772Z,100079.78
2017-11-12T00:29:48.133Z,100076.81
2017-11-12T00:32:16.486Z,100075.09
2017-11-12T00:34:45.615Z,100085.44
2017-11-12T00:37:13.984Z,100081.91
2017-11-12T00:39:42.356Z,100087.73
2017-11-12T00:42:10.717Z,100087.82
2017-11-12T00:44:39.856Z,100093.27
2017-11-12T00:47:08.220Z,100093.27
2017-11-12T00:49:36.589Z,100094.21
2017-11-12T00:52:05.716Z,100097.36
2017-11-12T00:54:34.079Z,100096.38
2017-11-12T00:57:02.446Z,100101.20
2017-11-12T00:59:30.814Z,100102.45
2017-11-12T01:01:59.953Z,100092.14
2017-11-12T01:04:28.316Z,100091.27
2017-11-12T01:06:56.685Z,100097.91
2017-11-12T01:09:25.044Z,100102.61
2017-11-12T01:11:54.178Z,100096.70
2017-11-12T01:14:22.544Z,100109.55
2017-11-12T01:16:50.915Z,100105.06
2017-11-12T01:19:19.268Z,100110.84
2017-11-12T01:21:48.828Z,100106.30
2017-11-12T01:24:17.380Z,100107.12
2017-11-12T01:26:46.507Z,100113.34
2017-11-12T01:29:14.868Z,100104.06
2017-11-12T01:31:43.237Z,100109.84
2017-11-12T01:34:11.599Z,100106.75
2017-11-12T01:36:40.723Z,100105.53
2017-11-12T01:39:09.086Z,100105.06
2017-11-12T01:41:38.218Z,100088.06
2017-11-12T01:44:06.581Z,100096.12
2017-11-12T01:46:34.950Z,100087.63
2017-11-12T01:49:03.306Z,100090.34
2017-11-12T01:51:32.439Z,100089.53
2017-11-12T01:54:00.805Z,100082.46
2017-11-12T01:56:29.165Z,100095.45
2017-11-12T01:58:58.299Z,100099.89
2017-11-12T02:01:26.665Z,100083.36
2017-11-12T02:03:55.042Z,100093.16
2017-11-12T02:06:23.408Z,100093.59
2017-11-12T02:08:52.555Z,100099.55
2017-11-12T02:11:20.928Z,100108.05
2017-11-12T02:13:49.295Z,100102.83
2017-11-12T02:16:17.667Z,100101.63
2017-11-12T02:18:46.040Z,100104.69
2017-11-12T02:21:14.413Z,100102.06
2017-11-12T02:23:42.786Z,100095.55
2017-11-12T02:26:11.163Z,100091.93
2017-11-12T02:28:39.524Z,100097.54
2017-11-12T02:31:08.651Z,100094.66
2017-11-12T02:33:37.014Z,100102.98
2017-11-12T02:36:06.147Z,100099.70
2017-11-12T02:38:34.521Z,100103.02
2017-11-12T02:41:02.888Z,100107.20
2017-11-12T02:43:31.281Z,100118.92
2017-11-12T02:45:59.640Z,100114.99
2017-11-12T02:48:28.013Z,100124.73
2017-11-12T02:50:56.396Z,100116.68
2017-11-12T02:53:24.790Z,100121.51
2017-11-12T02:55:53.164Z,100123.54
2017-11-12T02:58:21.532Z,100114.14
2017-11-12T03:00:49.901Z,100115.91
2017-11-12T03:03:19.046Z,100123.15
2017-11-12T03:05:47.416Z,100118.36
2017-11-12T03:08:15.785Z,100124.23
2017-11-12T03:10:44.140Z,100126.55
2017-11-12T03:13:13.264Z,100123.09
2017-11-12T03:15:41.631Z,100135.20
2017-11-12T03:18:09.997Z,100128.69
2017-11-12T03:20:38.373Z,100128.81
2017-11-12T03:23:06.741Z,100128.04
2017-11-12T03:25:35.883Z,100133.07
2017-11-12T03:28:04.245Z,100129.97
2017-11-12T03:30:32.608Z,100135.35
2017-11-12T03:33:00.976Z,100135.79
2017-11-12T03:35:30.107Z,100136.27
2017-11-12T03:37:58.458Z,100131.27
2017-11-12T03:40:27.592Z,100134.28
2017-11-12T03:42:55.951Z,100134.55
2017-11-12T03:45:24.316Z,100131.33
2017-11-12T03:47:52.697Z,100126.75
2017-11-12T03:50:21.066Z,100123.09
2017-11-12T03:52:50.200Z,100124.27
2017-11-12T03:55:18.564Z,100129.41
2017-11-12T03:57:46.935Z,100123.11
2017-11-12T04:00:15.304Z,100126.64
2017-11-12T04:02:44.441Z,100130.26
2017-11-12T04:05:12.814Z,100131.29
2017-11-12T04:07:41.171Z,100129.05
2017-11-12T04:10:09.545Z,100127.33
2017-11-12T04:12:37.922Z,100122.11
2017-11-12T04:15:06.292Z,100121.72
2017-11-12T04:17:35.427Z,100123.02
2017-11-12T04:20:03.793Z,100122.23
2017-11-12T04:22:32.161Z,100111.16
2017-11-12T04:25:00.531Z,100115.20
2017-11-12T04:27:28.904Z,100117.44
2017-11-12T04:29:58.039Z,100122.36
2017-11-12T04:32:26.434Z,100112.09
2017-11-12T04:34:54.783Z,100121.33
2017-11-12T04:37:23.153Z,100120.34
2017-11-12T04:39:51.529Z,100114.48
2017-11-12T04:42:19.897Z,100111.30
2017-11-12T04:44:49.035Z,100121.42
2017-11-12T04:47:17.390Z,100122.20
2017-11-12T04:49:45.763Z,100128.80
2017-11-12T04:52:14.140Z,100122.46
2017-11-12T04:54:43.276Z,100117.03
2017-11-12T04:57:11.647Z,100119.28
2017-11-12T04:59:40.044Z,100113.58
2017-11-12T05:02:08.415Z,100112.28
2017-11-12T05:04:36.789Z,100117.25
2017-11-12T05:07:05.157Z,100109.31
2017-11-12T05:09:33.524Z,100103.62
2017-11-12T05:12:01.890Z,100109.91
2017-11-12T05:14:31.016Z,100100.64
2017-11-12T05:16:59.375Z,100093.61
2017-11-12T05:19:27.749Z,100093.27
2017-11-12T05:21:56.129Z,100090.72
2017-11-12T05:24:24.501Z,100093.01
2017-11-12T05:26:53.650Z,100090.38
2017-11-12T05:29:22.030Z,100090.84
2017-11-12T05:31:50.399Z,100081.55
2017-11-12T05:34:18.772Z,100082.57
2017-11-12T05:36:47.141Z,100076.83
2017-11-12T05:39:15.528Z,100082.70
2017-11-12T05:41:43.906Z,100072.18
2017-11-12T05:44:12.273Z,100071.44
2017-11-12T05:46:40.639Z,100067.64
2017-11-12T05:49:09.024Z,100063.84
2017-11-12T05:51:37.398Z,100076.03
2017-11-12T05:54:05.761Z,100071.76
2017-11-12T05:56:34.892Z,100073.66
2017-11-12T05:59:03.265Z,100075.59
2017-11-12T06:01:31.632Z,100072.18
2017-11-12T06:04:00.005Z,100072.30
2017-11-12T06:06:28.383Z,100072.89
2017-11-12T06:08:57.524Z,100073.84
2017-11-12T06:11:25.895Z,100072.70
2017-11-12T06:13:54.266Z,100072.31
2017-11-12T06:16:22.621Z,100071.53
2017-11-12T06:18:50.989Z,100076.01
2017-11-12T06:21:20.124Z,100069.41
2017-11-12T06:23:48.487Z,100068.63
2017-11-12T06:26:16.851Z,100066.04
2017-11-12T06:28:45.988Z,100074.95
2017-11-12T06:31:14.360Z,100070.59
2017-11-12T06:33:42.723Z,100068.28
2017-11-12T06:36:11.101Z,100067.42
2017-11-12T06:38:39.471Z,100064.70
2017-11-12T06:41:07.841Z,100061.56
2017-11-12T06:43:36.980Z,100062.82
2017-11-12T06:46:05.357Z,100060.11
2017-11-12T06:48:33.728Z,100056.53
2017-11-12T06:51:02.087Z,100051.13
2017-11-12T06:53:30.450Z,100049.27
2017-11-12T06:55:59.588Z,100052.56
2017-11-12T06:58:27.954Z,100052.74
2017-11-12T07:00:56.323Z,100043.98
2017-11-12T07:03:24.693Z,100039.71
2017-11-12T07:05:53.054Z,100032.66
2017-11-12T07:08:22.193Z,100028.82
2017-11-12T07:10:50.558Z,100026.29
2017-11-12T07:13:18.929Z,100030.47
2017-11-12T07:15:47.310Z,100030.30
2017-11-12T07:18:15.682Z,100031.77
2017-11-12T07:20:44.821Z,100035.86
2017-11-12T07:23:13.181Z,100032.56
2017-11-12T07:25:41.546Z,100022.80
2017-11-12T07:28:09.916Z,100020.03
2017-11-12T07:30:39.053Z,100018.53
2017-11-12T07:33:07.411Z,100014.62
2017-11-12T07:35:35.776Z,100015.25
2017-11-12T07:38:04.911Z,100018.49
2017-11-12T07:40:33.273Z,100016.48
2017-11-12T07:43:01.648Z,100010.41
2017-11-12T07:45:30.020Z,100006.34
2017-11-12T07:47:58.397Z,100012.94
2017-11-12T07:50:26.790Z,100012.30
2017-11-12T07:52:55.159Z,100003.19
2017-11-12T07:55:23.532Z,99999.94
2017-11-12T07:57:51.905Z,99996.30
2017-11-12T08:00:20.284Z,100002.53
2017-11-12T08:02:48.655Z,100005.58
2017-11-12T08:05:17.792Z,100001.23
2017-11-12T08:07:46.167Z,100004.49
2017-11-12T08:10:14.541Z,100001.32
2017-11-12T08:12:42.907Z,100000.83
2017-11-12T08:15:11.277Z,100001.30
2017-11-12T08:17:40.419Z,100003.00
2017-11-12T08:20:08.801Z,99994.37
2017-11-12T08:22:37.172Z,99996.48
2017-11-12T08:25:05.546Z,99988.58
2017-11-12T08:27:33.915Z,99991.67
2017-11-12T08:30:02.276Z,99987.13
2017-11-12T08:32:30.671Z,99984.35
2017-11-12T08:34:59.032Z,99979.30
2017-11-12T08:37:27.414Z,99978.18
2017-11-12T08:39:55.789Z,99971.34
2017-11-12T08:42:24.161Z,99956.71
2017-11-12T08:44:53.295Z,99962.16
2017-11-12T08:47:21.665Z,99962.59
2017-11-12T08:49:50.027Z,99956.48
2017-11-12T08:52:18.390Z,99950.63
2017-11-12T08:54:47.524Z,99945.66
2017-11-12T08:57:15.888Z,99944.65
2017-11-12T08:59:44.264Z,99945.11
2017-11-12T09:02:12.631Z,99937.58
2017-11-12T09:04:41.776Z,99934.97
2017-11-12T09:07:10.149Z,99932.76
2017-11-12T09:09:38.522Z,99932.01
2017-11-12T09:12:06.896Z,99925.62
2017-11-12T09:14:35.258Z,99924.21
2017-11-12T09:17:03.631Z,99929.70
2017-11-12T09:19:32.001Z,99922.63
2017-11-12T09:22:01.132Z,99921.48
2017-11-12T09:24:29.492Z,99921.96
2017-11-12T09:26:57.860Z,99917.18
2017-11-12T09:29:26.232Z,99912.11
2017-11-12T09:31:55.372Z,99906.33
2017-11-12T09:34:23.744Z,99908.58
2017-11-12T09:36:52.108Z,99903.77
2017-11-12T09:39:20.478Z,99904.62
2017-11-12T09:41:48.844Z,99897.66
2017-11-12T09:44:17.978Z,99894.42
2017-11-12T09:46:46.345Z,99895.63
2017-11-12T09:49:14.709Z,99890.73
2017-11-12T09:51:43.096Z,99895.63
2017-11-12T09:54:11.465Z,99897.12
2017-11-12T09:56:39.832Z,99892.96
2017-11-12T09:59:08.981Z,99884.25
2017-11-12T10:01:37.352Z,99879.66
2017-11-12T10:04:05.721Z,99885.37
2017-11-12T10:06:34.088Z,99874.02
2017-11-12T10:09:02.472Z,99884.16
2017-11-12T10:11:30.839Z,99872.49
2017-11-12T10:13:59.200Z,99867.08
2017-11-12T10:16:29.159Z,99867.88
2017-11-12T10:18:57.524Z,99864.84
2017-11-12T10:21:25.896Z,99861.58
2017-11-12T10:23:54.269Z,99859.80
2017-11-12T10:26:22.632Z,99858.16
2017-11-12T10:28:51.767Z,99859.45
2017-11-12T10:31:20.131Z,99862.54
2017-11-12T10:33:48.517Z,99866.44
2017-11-12T10:36:16.885Z,99872.16
2017-11-12T10:38:45.259Z,99874.75
2017-11-12T10:41:13.641Z,99862.23
2017-11-12T10:43:42.006Z,99857.33
2017-11-12T10:46:11.142Z,99861.17
2017-11-12T10:48:39.541Z,99853.79
2017-11-12T10:51:07.920Z,99853.45
2017-11-12T10:53:36.308Z,99843.87
2017-11-12T10:56:04.680Z,99841.48
2017-11-12T10:58:33.052Z,99838.14
2017-11-12T11:01:01.419Z,99836.62
2017-11-12T11:03:29.793Z,99830.75
2017-11-12T11:05:58.161Z,99825.64
2017-11-12T11:08:26.536Z,99818.41
2017-11-12T11:10:54.910Z,99808.33
2017-11-12T11:13:23.283Z,99811.03
2017-11-12T11:15:52.420Z,99806.02
2017-11-12T11:18:20.791Z,99807.95
2017-11-12T11:20:49.199Z,99811.28
2017-11-12T11:23:17.564Z,99798.78
2017-11-12T11:25:46.695Z,99795.71
2017-11-12T11:28:15.832Z,99790.94
2017-11-12T11:30:44.201Z,99794.48
2017-11-12T11:33:12.567Z,99791.80
2017-11-12T11:35:41.710Z,99786.45
2017-11-12T11:38:10.848Z,99787.45
2017-11-12T11:40:40.793Z,99788.52
2017-11-12T11:43:09.163Z,99782.42
2017-11-12T11:45:37.537Z,99776.38
2017-11-12T11:48:06.669Z,99775.70
2017-11-12T11:50:35.026Z,99777.48
2017-11-12T11:53:03.395Z,99767.63
2017-11-12T11:55:32.534Z,99772.31
2017-11-12T11:58:00.904Z,99771.44
2017-11-12T12:00:29.279Z,99761.96
2017-11-12T12:02:57.661Z,99759.67
2017-11-12T12:05:26.024Z,99761.18
2017-11-12T12:07:54.416Z,99755.33
2017-11-12T12:10:22.791Z,99750.46
2017-11-12T12:12:51.151Z,99745.84
2017-11-12T12:15:19.511Z,99738.88
2017-11-12T12:17:48.646Z,99738.70
2017-11-12T12:20:17.009Z,99725.59
2017-11-12T12:22:45.389Z,99717.41
2017-11-12T12:25:13.760Z,99707.77
2017-11-12T12:27:42.119Z,99713.97
2017-11-12T12:30:10.491Z,99705.52
2017-11-12T12:32:38.869Z,99700.11
2017-11-12T12:35:07.248Z,99688.55
2017-11-12T12:37:35.641Z,99688.06
2017-11-12T12:40:04.775Z,99690.17
2017-11-12T12:42:33.165Z,99682.61
2017-11-12T12:45:01.535Z,99670.25
2017-11-12T12:47:29.906Z,99663.02
2017-11-12T12:49:58.268Z,99653.13
2017-11-12T12:52:28.027Z,99648.63
2017-11-12T12:54:56.408Z,99640.46
2017-11-12T12:57:24.776Z,99633.52
2017-11-12T12:59:53.147Z,99623.02
2017-11-12T13:02:21.513Z,99617.84
2017-11-12T13:04:49.879Z,99620.20
2017-11-12T13:07:18.264Z,99614.92
2017-11-12T13:09:46.630Z,99611.30
2017-11-12T13:12:15.770Z,99599.95
2017-11-12T13:14:44.137Z,99599.14
2017-11-12T13:17:12.509Z,99601.78
2017-11-12T13:19:40.876Z,99595.16
2017-11-12T13:22:09.254Z,99603.05
2017-11-12T13:24:37.640Z,99621.30
2017-11-12T13:27:06.015Z,99621.36
2017-11-12T13:29:34.388Z,99632.97
2017-11-12T13:32:02.764Z,99645.30
2017-11-12T13:34:31.144Z,99649.36
2017-11-12T13:36:59.508Z,99645.58
2017-11-12T13:39:28.642Z,99644.78
2017-11-12T13:41:56.999Z,99653.28
2017-11-12T13:44:26.135Z,99658.33
2017-11-12T13:46:54.517Z,99652.84
2017-11-12T13:49:22.890Z,99661.41
2017-11-12T13:51:51.269Z,99661.78
2017-11-12T13:54:19.642Z,99656.97
2017-11-12T13:56:48.003Z,99670.14
2017-11-12T13:59:16.374Z,99669.42
2017-11-12T14:01:44.799Z,99670.05
2017-11-12T14:04:13.171Z,99664.47
2017-11-12T14:06:41.536Z,99661.55
2017-11-12T15:00:00.419Z,99612.09
2017-11-12T15:02:28.780Z,99621.34
2017-11-12T15:04:57.904Z,99628.43
2017-11-12T15:07:26.267Z,99627.29
2017-11-12T15:09:55.401Z,99629.68
2017-11-12T15:12:23.764Z,99620.32
2017-11-12T15:14:52.125Z,99625.58
2017-11-12T15:17:21.252Z,99626.77
2017-11-12T15:19:49.634Z,99628.05
2017-11-12T15:22:18.087Z,99631.89
2017-11-12T15:24:46.449Z,99624.84
2017-11-12T15:27:15.577Z,99628.45
2017-11-12T15:29:43.949Z,99626.72
2017-11-12T15:32:12.318Z,99631.25
2017-11-12T15:34:40.696Z,99621.53
2017-11-12T15:37:09.055Z,99630.43
2017-11-12T15:39:37.431Z,99619.34
2017-11-12T15:42:06.568Z,99618.27
2017-11-12T15:44:34.937Z,99618.02
2017-11-12T15:47:03.304Z,99609.48
2017-11-12T15:49:32.541Z,99601.50
2017-11-12T15:52:00.928Z,99594.94
2017-11-12T15:54:29.308Z,99599.02
2017-11-12T15:56:57.675Z,99598.40
2017-11-12T15:59:26.064Z,99603.77
2017-11-12T16:01:54.428Z,99599.87
2017-11-12T16:04:22.797Z,99604.77
2017-11-12T16:06:51.175Z,99609.41
2017-11-12T16:09:19.543Z,99613.42
2017-11-12T16:11:47.911Z,99613.31
2017-11-12T16:14:17.045Z,99623.12
2017-11-12T16:16:45.413Z,99619.87
2017-11-12T16:19:13.784Z,99618.08
2017-11-12T16:21:42.269Z,99619.09
2017-11-12T16:24:10.636Z,99620.20
2017-11-12T16:26:39.776Z,99618.16
2017-11-12T16:29:08.140Z,99612.98
2017-11-12T16:31:36.499Z,99607.31
2017-11-12T16:34:04.874Z,99600.44
2017-11-12T16:36:33.253Z,99602.16
2017-11-12T16:39:01.647Z,99605.37
2017-11-12T16:41:30.017Z,99596.02
2017-11-12T16:43:58.388Z,99588.78
2017-11-12T16:46:26.749Z,99588.47
2017-11-12T16:48:55.882Z,99587.14
2017-11-12T16:51:24.249Z,99574.70
2017-11-12T16:53:52.622Z,99577.23
2017-11-12T16:56:21.755Z,99567.77
2017-11-12T16:58:50.107Z,99560.73
2017-11-12T17:01:18.471Z,99573.14
2017-11-12T17:03:47.609Z,99568.02
2017-11-12T17:06:15.964Z,99570.00
2017-11-12T17:08:44.330Z,99582.25
2017-11-12T17:11:12.715Z,99579.42
2017-11-12T17:13:41.092Z,99578.92
2017-11-12T17:16:09.460Z,99573.63
2017-11-12T17:18:38.605Z,99568.98
2017-11-12T17:21:06.971Z,99567.97
2017-11-12T17:23:35.328Z,99574.53
2017-11-12T17:26:03.689Z,99578.73
2017-11-12T17:28:32.912Z,99580.91
2017-11-12T17:31:01.310Z,99571.17
2017-11-12T17:33:29.676Z,99566.28
2017-11-12T17:35:58.045Z,99565.69
2017-11-12T17:38:26.417Z,99566.48
2017-11-12T17:40:54.782Z,99572.70
2017-11-12T17:43:23.926Z,99579.40
2017-11-12T17:45:52.298Z,99583.86
2017-11-12T17:48:20.763Z,99587.81
2017-11-12T17:50:49.163Z,99585.19
2017-11-12T17:53:17.551Z,99593.40
2017-11-12T17:55:45.924Z,99594.65
2017-11-12T17:58:14.314Z,99596.45
2017-11-12T18:00:42.686Z,99593.36
2017-11-12T18:03:11.061Z,99599.70
2017-11-12T18:05:39.680Z,99605.06
2017-11-12T18:08:08.047Z,99610.38
2017-11-12T18:10:36.416Z,99612.53
2017-11-12T18:13:04.819Z,99609.64
2017-11-12T18:15:33.276Z,99618.40
2017-11-12T18:18:01.640Z,99622.34
2017-11-12T18:20:30.009Z,99632.80
2017-11-12T18:22:59.070Z,99639.33
2017-11-12T18:25:28.223Z,99643.87
2017-11-12T18:27:56.596Z,99652.79
2017-11-12T18:30:24.964Z,99663.35
2017-11-12T18:32:53.347Z,99657.95
2017-11-12T18:35:21.708Z,99664.92
2017-11-12T18:37:50.072Z,99664.48
2017-11-12T18:40:19.203Z,99665.82
2017-11-12T18:42:47.598Z,99665.82
2017-11-12T18:45:15.996Z,99655.65
2017-11-12T18:47:44.361Z,99646.06
2017-11-12T18:50:12.738Z,99636.63
2017-11-12T18:52:41.130Z,99628.48
2017-11-12T18:55:12.473Z,99635.61
2017-11-12T19:00:51.345Z,99646.49
2017-11-12T19:06:46.492Z,99654.94
2017-11-12T19:09:17.213Z,99662.61
2017-11-12T19:11:46.355Z,99660.38
2017-11-12T19:15:42.465Z,99649.89
2017-11-12T19:18:10.732Z,99648.41
2017-11-12T19:20:40.128Z,99650.99
2017-11-12T19:26:13.730Z,99662.26
2017-11-12T19:31:45.106Z,99659.09
2017-11-12T19:34:12.674Z,99658.81
2017-11-12T19:36:41.064Z,99655.56
2017-11-12T19:39:08.601Z,99646.45
2017-11-12T19:41:36.122Z,99653.06
2017-11-12T19:44:03.644Z,99679.55
2017-11-12T19:46:31.170Z,99710.61
2017-11-12T19:48:58.686Z,99730.09
2017-11-12T19:51:26.198Z,99738.94
2017-11-12T19:53:53.728Z,99750.20
2017-11-12T19:56:21.265Z,99748.25
2017-11-12T19:58:48.800Z,99748.56
2017-11-12T20:01:16.332Z,99751.98
2017-11-12T20:03:43.855Z,99751.02
2017-11-12T20:06:11.383Z,99747.06
2017-11-12T20:08:38.906Z,99746.52
2017-11-12T20:11:06.436Z,99741.02
2017-11-12T20:13:33.946Z,99748.45
2017-11-12T20:16:01.465Z,99744.58
2017-11-12T20:18:29.002Z,99741.56
2017-11-12T20:20:56.542Z,99737.34
2017-11-12T20:23:24.058Z,99748.81
2017-11-12T20:25:51.584Z,99748.02
2017-11-12T20:28:19.105Z,99746.56
2017-11-12T20:30:46.634Z,99764.75
2017-11-12T20:33:14.165Z,99775.75
2017-11-12T20:35:41.679Z,99787.40
2017-11-12T20:38:09.208Z,99794.80
2017-11-12T20:40:36.738Z,99797.47
2017-11-12T20:43:04.266Z,99806.02
2017-11-12T20:45:31.795Z,99812.92
2017-11-12T20:47:59.322Z,99810.12
2017-11-12T20:50:26.839Z,99817.13
2017-11-12T20:52:54.364Z,99814.07
2017-11-12T20:55:21.894Z,99811.52
2017-11-12T20:57:49.439Z,99806.67
2017-11-12T21:00:16.951Z,99801.45
2017-11-12T21:02:44.476Z,99799.70
2017-11-12T21:05:12.313Z,99802.54
2017-11-12T21:07:39.835Z,99810.66
2017-11-12T21:10:07.356Z,99815.98
2017-11-12T21:12:34.874Z,99819.50
2017-11-12T21:15:02.403Z,99826.05
2017-11-12T21:17:30.045Z,99842.11
2017-11-12T21:20:03.268Z,99839.34
2017-11-12T21:22:32.572Z,99849.98
2017-11-12T21:25:00.088Z,99858.83
2017-11-12T21:27:28.069Z,99860.59
2017-11-12T21:29:56.341Z,99864.72
2017-11-12T21:32:23.866Z,99856.48
2017-11-12T21:34:52.303Z,99858.78
2017-11-12T21:37:22.324Z,99861.19
2017-11-12T21:39:49.842Z,99863.34
2017-11-12T21:42:17.374Z,99866.05
2017-11-12T21:44:44.903Z,99866.41
2017-11-12T21:47:12.421Z,99870.15
2017-11-12T21:49:39.936Z,99871.34
2017-11-12T21:52:07.468Z,99875.69
2017-11-12T21:54:34.988Z,99882.95
2017-11-12T21:57:02.536Z,99875.14
2017-11-12T21:59:30.049Z,99877.66
2017-11-12T22:01:57.566Z,99880.83
2017-11-12T22:04:25.095Z,99883.69
2017-11-12T22:06:52.630Z,99880.92
2017-11-12T22:09:20.159Z,99882.83
2017-11-12T22:11:47.671Z,99883.66
2017-11-12T22:14:15.185Z,99890.48
2017-11-12T22:16:42.732Z,99889.52
2017-11-12T22:19:10.245Z,99892.98
2017-11-12T22:21:37.764Z,99894.03
2017-11-12T22:24:05.282Z,99891.15
2017-11-12T22:26:32.798Z,99889.98
2017-11-12T22:29:00.313Z,99887.13
2017-11-12T22:31:27.835Z,99894.86
2017-11-12T22:33:55.359Z,99890.11
2017-11-12T22:36:22.885Z,99892.94
2017-11-12T22:38:50.402Z,99904.74
2017-11-12T22:41:17.923Z,99904.24
2017-11-12T22:43:45.439Z,99911.69
2017-11-12T22:46:12.969Z,99914.05
2017-11-12T22:48:40.510Z,99926.31
2017-11-12T22:51:08.032Z,99927.64
2017-11-12T22:53:35.623Z,99937.28
2017-11-12T22:56:03.172Z,99951.08
2017-11-12T22:58:30.744Z,99960.59
2017-11-12T23:00:58.288Z,99969.47
2017-11-12T23:03:25.808Z,99964.74
2017-11-12T23:05:53.337Z,99972.49
2017-11-12T23:08:20.851Z,99971.55
2017-11-12T23:10:48.377Z,99967.44
2017-11-12T23:13:15.893Z,99973.17
2017-11-12T23:15:43.416Z,99966.12
2017-11-12T23:18:11.032Z,99969.55
2017-11-12T23:20:38.614Z,99971.57
2017-11-12T23:23:06.135Z,99969.07
2017-11-12T23:25:33.654Z,99969.38
2017-11-12T23:28:01.196Z,99970.40
2017-11-12T23:30:28.725Z,99972.78
2017-11-12T23:32:56.253Z,99975.47
2017-11-12T23:35:23.775Z,99979.46
2017-11-12T23:37:51.305Z,99989.41
2017-11-12T23:40:18.832Z,99987.66
2017-11-12T23:42:46.350Z,99990.19
2017-11-12T23:45:13.873Z,99995.69
2017-11-12T23:47:41.390Z,99996.59
2017-11-12T23:50:08.926Z,100001.19
2017-11-12T23:52:36.457Z,100000.75
2017-11-12T23:55:03.979Z,100006.99
2017-11-12T23:57:31.499Z,100007.98
2017-11-12T23:59:59.024Z,100005.78
